createdAt,value
2022-09-22T00:00:00.210Z,90.40
2022-09-22T00:02:45.757Z,90.30
2022-09-22T00:05:31.206Z,90.60
2022-09-22T00:08:17.667Z,91.50
2022-09-22T00:11:16.784Z,92.00
2022-09-22T00:14:03.232Z,91.00
2022-09-22T00:16:54.594Z,91.20
2022-09-22T00:19:39.978Z,91.80
2022-09-22T00:22:26.011Z,91.00
2022-09-22T00:25:11.180Z,90.80
2022-09-22T00:27:56.680Z,90.90
2022-09-22T00:30:42.954Z,91.00
2022-09-22T00:33:28.347Z,91.10
2022-09-22T00:36:15.444Z,90.60
2022-09-22T00:39:01.094Z,90.60
2022-09-22T00:41:49.526Z,91.10
2022-09-22T00:44:44.751Z,90.90
2022-09-22T00:47:33.143Z,91.10
2022-09-22T00:50:23.139Z,91.10
2022-09-22T00:53:10.785Z,91.50
2022-09-22T00:56:01.459Z,91.40
2022-09-22T00:58:57.571Z,92.20
2022-09-22T01:01:42.941Z,91.80
2022-09-22T01:04:29.790Z,92.90
2022-09-22T01:07:16.006Z,93.80
2022-09-22T01:10:01.384Z,94.30
2022-09-22T01:12:58.629Z,94.20
2022-09-22T01:16:08.915Z,94.80
2022-09-22T01:19:06.597Z,94.30
2022-09-22T01:22:32.513Z,94.70
2022-09-22T01:25:35.895Z,94.90
2022-09-22T01:28:20.917Z,94.80
2022-09-22T01:31:29.363Z,95.40
2022-09-22T01:34:31.455Z,96.00
2022-09-22T01:37:25.291Z,96.50
2022-09-22T01:40:31.232Z,96.40
2022-09-22T01:43:29.021Z,97.50
2022-09-22T01:46:35.387Z,97.60
2022-09-22T01:49:22.962Z,97.10
2022-09-22T01:52:13.642Z,96.70
2022-09-22T01:55:23.748Z,96.30
2022-09-22T01:58:19.309Z,95.90
2022-09-22T02:01:15.718Z,95.80
2022-09-22T02:04:15.673Z,95.50
2022-09-22T02:07:15.726Z,95.40
2022-09-22T02:10:06.176Z,96.10
2022-09-22T02:12:52.136Z,95.90
2022-09-22T02:15:56.351Z,96.40
2022-09-22T02:18:50.744Z,96.40
2022-09-22T02:21:37.394Z,96.30
2022-09-22T02:24:49.038Z,95.90
2022-09-22T02:27:36.822Z,96.40
2022-09-22T02:30:23.763Z,96.60
2022-09-22T02:33:10.504Z,96.10
2022-09-22T02:36:10.170Z,96.60
2022-09-22T02:39:07.051Z,97.10
2022-09-22T02:42:01.912Z,97.90
2022-09-22T02:44:56.283Z,99.30
2022-09-22T02:47:57.370Z,99.40
2022-09-22T02:50:43.528Z,99.20
2022-09-22T02:53:28.818Z,99.50
2022-09-22T02:56:14.517Z,99.90
2022-09-22T02:59:00.116Z,99.90
2022-09-22T03:01:45.914Z,99.90
2022-09-22T03:04:32.301Z,99.90
2022-09-22T03:07:18.922Z,99.90
2022-09-22T03:10:05.127Z,99.90
2022-09-22T03:13:15.097Z,99.90
2022-09-22T03:15:56.342Z,99.90
2022-09-22T03:18:41.972Z,99.90
2022-09-22T03:21:27.679Z,99.90
2022-09-22T03:24:14.349Z,99.90
2022-09-22T03:27:00.114Z,99.90
2022-09-22T03:29:45.709Z,99.90
2022-09-22T03:32:31.531Z,99.90
2022-09-22T03:35:17.037Z,99.90
2022-09-22T03:38:02.538Z,99.90
2022-09-22T03:40:52.767Z,99.90
2022-09-22T03:43:38.147Z,99.90
2022-09-22T03:46:24.923Z,99.90
2022-09-22T03:49:11.044Z,99.90
2022-09-22T03:51:56.889Z,99.90
2022-09-22T03:54:42.213Z,99.90
2022-09-22T03:57:27.733Z,99.90
2022-09-22T04:00:14.100Z,99.90
2022-09-22T04:02:59.245Z,99.90
2022-09-22T04:05:51.503Z,99.90
2022-09-22T04:08:37.146Z,99.90
2022-09-22T04:11:24.339Z,99.90
2022-09-22T04:14:10.177Z,99.90
2022-09-22T04:16:56.718Z,99.90
2022-09-22T04:19:42.268Z,99.90
2022-09-22T04:22:28.833Z,99.90
2022-09-22T04:25:14.371Z,99.90
2022-09-22T04:28:04.819Z,99.90
2022-09-22T04:30:51.103Z,99.90
2022-09-22T04:33:37.034Z,99.90
2022-09-22T04:36:22.847Z,99.90
2022-09-22T04:39:08.527Z,99.90
2022-09-22T04:41:54.802Z,99.90
2022-09-22T04:44:40.283Z,99.90
2022-09-22T04:47:25.965Z,99.90
2022-09-22T04:50:11.147Z,99.90
2022-09-22T04:52:57.453Z,99.90
2022-09-22T04:55:42.835Z,99.90
2022-09-22T04:58:28.357Z,99.90
2022-09-22T05:01:13.996Z,99.90
2022-09-22T05:03:59.333Z,99.90
2022-09-22T05:06:44.794Z,99.90
2022-09-22T05:09:30.245Z,99.90
2022-09-22T05:12:15.895Z,99.90
2022-09-22T05:15:01.311Z,99.90
2022-09-22T05:17:55.187Z,99.90
2022-09-22T05:20:40.902Z,99.90
2022-09-22T05:23:26.212Z,99.90
2022-09-22T05:26:12.047Z,99.90
2022-09-22T05:29:00.253Z,99.90
2022-09-22T05:31:48.516Z,99.90
2022-09-22T05:34:33.884Z,99.90
2022-09-22T05:37:20.620Z,99.90
2022-09-22T05:40:07.141Z,99.90
2022-09-22T05:42:54.293Z,99.90
2022-09-22T05:45:40.013Z,99.90
2022-09-22T05:48:30.897Z,99.90
2022-09-22T05:51:16.664Z,99.90
2022-09-22T05:54:02.721Z,99.90
2022-09-22T05:56:48.227Z,99.90
2022-09-22T05:59:33.709Z,99.90
2022-09-22T06:02:26.162Z,99.90
2022-09-22T06:05:13.094Z,99.90
2022-09-22T06:08:03.913Z,99.90
2022-09-22T06:10:51.216Z,99.90
2022-09-22T06:13:36.755Z,99.90
2022-09-22T06:16:22.340Z,99.90
2022-09-22T06:19:07.758Z,99.90
2022-09-22T06:21:53.441Z,99.90
2022-09-22T06:24:38.812Z,99.90
2022-09-22T06:27:24.471Z,99.90
2022-09-22T06:30:11.279Z,99.90
2022-09-22T06:32:57.930Z,99.90
2022-09-22T06:35:45.482Z,99.90
2022-09-22T06:38:31.950Z,99.90
2022-09-22T06:41:17.247Z,99.90
2022-09-22T06:44:03.235Z,99.90
2022-09-22T06:46:48.591Z,99.90
2022-09-22T06:49:34.412Z,99.90
2022-09-22T06:52:20.839Z,99.90
2022-09-22T06:55:06.820Z,99.90
2022-09-22T06:57:52.482Z,99.90
2022-09-22T07:00:38.305Z,99.90
2022-09-22T07:03:25.476Z,99.90
2022-09-22T07:06:10.963Z,99.90
2022-09-22T07:08:56.451Z,99.90
2022-09-22T07:11:42.086Z,99.90
2022-09-22T07:14:28.263Z,99.90
2022-09-22T07:17:13.678Z,99.90
2022-09-22T07:19:59.389Z,99.90
2022-09-22T07:22:44.815Z,99.90
2022-09-22T07:25:35.783Z,99.90
2022-09-22T07:28:21.678Z,99.90
2022-09-22T07:31:13.207Z,99.90
2022-09-22T07:34:01.889Z,99.90
2022-09-22T07:36:48.976Z,99.90
2022-09-22T07:39:34.355Z,99.90
2022-09-22T07:42:20.036Z,99.90
2022-09-22T07:45:15.358Z,99.90
2022-09-22T07:48:19.405Z,99.90
2022-09-22T07:51:12.895Z,99.90
2022-09-22T07:54:10.035Z,99.90
2022-09-22T07:56:58.362Z,99.90
2022-09-22T07:59:45.078Z,99.90
2022-09-22T08:02:31.103Z,99.90
2022-09-22T08:05:16.447Z,99.90
2022-09-22T08:08:03.634Z,98.40
2022-09-22T08:10:49.054Z,98.10
2022-09-22T08:13:35.095Z,98.50
2022-09-22T08:16:22.933Z,97.30
2022-09-22T08:19:12.489Z,97.40
2022-09-22T08:21:58.609Z,96.30
2022-09-22T08:24:44.931Z,97.00
2022-09-22T08:27:30.616Z,96.20
2022-09-22T08:30:17.100Z,96.10
2022-09-22T08:33:02.483Z,95.90
2022-09-22T08:35:59.360Z,94.50
2022-09-22T08:38:49.211Z,94.20
2022-09-22T08:41:42.987Z,93.50
2022-09-22T08:44:58.033Z,92.20
2022-09-22T08:48:09.913Z,92.90
2022-09-22T08:51:51.245Z,91.10
2022-09-22T08:54:38.653Z,88.40
2022-09-22T08:57:33.929Z,90.20
2022-09-22T09:00:20.570Z,88.50
2022-09-22T09:03:25.048Z,85.60
2022-09-22T09:06:42.731Z,84.00
2022-09-22T09:09:40.074Z,86.90
2022-09-22T09:12:34.560Z,84.40
2022-09-22T09:15:38.000Z,84.40
2022-09-22T09:18:34.585Z,84.80
2022-09-22T09:21:22.853Z,85.70
2022-09-22T09:27:30.074Z,80.90
2022-09-22T09:30:21.063Z,77.10
2022-09-22T09:33:29.471Z,74.60
2022-09-22T09:36:18.573Z,75.30
2022-09-22T09:39:14.649Z,77.80
2022-09-22T09:42:02.231Z,77.80
2022-09-22T09:44:53.430Z,76.10
2022-09-22T09:48:15.205Z,76.10
2022-09-22T09:51:05.506Z,72.90
2022-09-22T09:53:52.606Z,69.60
2022-09-22T09:57:01.640Z,73.20
2022-09-22T10:00:14.468Z,72.40
2022-09-22T10:03:03.691Z,67.60
2022-09-22T10:06:02.691Z,66.20
2022-09-22T10:08:51.432Z,67.40
2022-09-22T10:11:36.929Z,64.70
2022-09-22T10:14:24.698Z,65.60
2022-09-22T10:17:29.973Z,64.00
2022-09-22T10:20:23.016Z,61.70
2022-09-22T10:23:35.543Z,64.60
2022-09-22T10:26:28.622Z,65.40
2022-09-22T10:29:21.111Z,61.30
2022-09-22T10:32:15.566Z,64.00
2022-09-22T10:35:01.150Z,62.50
2022-09-22T10:37:48.452Z,62.40
2022-09-22T10:40:35.292Z,61.30
2022-09-22T10:43:35.656Z,59.90
2022-09-22T10:46:29.167Z,59.40
2022-09-22T10:49:40.219Z,62.10
2022-09-22T10:52:43.790Z,60.10
2022-09-22T10:55:41.646Z,57.90
2022-09-22T10:58:40.271Z,60.30
2022-09-22T11:02:28.352Z,59.30
2022-09-22T11:05:52.730Z,58.50
2022-09-22T11:09:22.595Z,57.50
2022-09-22T11:12:35.354Z,62.50
2022-09-22T11:15:58.897Z,59.00
2022-09-22T11:19:01.927Z,56.20
2022-09-22T11:22:02.572Z,56.30
2022-09-22T11:24:59.734Z,57.10
2022-09-22T11:27:53.466Z,56.00
2022-09-22T11:30:46.661Z,54.90
2022-09-22T11:34:06.533Z,54.80
2022-09-22T11:36:52.195Z,52.90
2022-09-22T11:40:23.811Z,51.50
2022-09-22T11:43:48.785Z,52.00
2022-09-22T11:46:58.180Z,46.40
2022-09-22T11:49:59.706Z,46.90
2022-09-22T11:53:08.623Z,42.40
2022-09-22T11:56:22.191Z,37.80
2022-09-22T11:59:29.904Z,34.10
2022-09-22T12:02:28.965Z,30.80
2022-09-22T12:05:30.148Z,28.70
2022-09-22T12:08:21.034Z,26.90
2022-09-22T12:11:10.316Z,25.70
2022-09-22T12:13:57.942Z,23.70
2022-09-22T12:16:48.518Z,23.60
2022-09-22T12:20:02.900Z,23.50
2022-09-22T12:23:20.839Z,24.60
2022-09-22T12:26:12.660Z,24.40
2022-09-22T12:28:59.694Z,25.50
2022-09-22T12:31:48.633Z,29.10
2022-09-22T12:34:39.342Z,30.90
2022-09-22T12:37:36.076Z,31.80
2022-09-22T12:40:35.631Z,28.40
2022-09-22T12:43:23.806Z,29.20
2022-09-22T12:46:24.796Z,29.60
2022-09-22T12:49:16.188Z,32.00
2022-09-22T12:52:02.218Z,33.50
2022-09-22T12:54:48.105Z,38.30
2022-09-22T12:57:46.946Z,35.30
2022-09-22T13:00:36.524Z,34.50
2022-09-22T13:03:24.795Z,34.20
2022-09-22T13:06:23.991Z,33.90
2022-09-22T13:09:20.115Z,36.90
2022-09-22T13:12:12.021Z,37.90
2022-09-22T13:15:06.948Z,36.40
2022-09-22T13:17:53.137Z,40.90
2022-09-22T13:20:38.484Z,38.80
2022-09-22T13:23:24.051Z,37.30
2022-09-22T13:26:13.928Z,36.50
2022-09-22T13:29:14.139Z,35.50
2022-09-22T13:32:18.623Z,37.70
2022-09-22T13:35:04.620Z,37.40
2022-09-22T13:37:50.074Z,39.10
2022-09-22T13:40:35.633Z,39.40
2022-09-22T13:43:28.919Z,39.60
2022-09-22T13:46:41.490Z,39.00
2022-09-22T13:49:38.911Z,41.50
2022-09-22T13:52:31.263Z,41.70
2022-09-22T13:55:37.499Z,42.40
2022-09-22T13:58:35.240Z,42.50
2022-09-22T14:01:23.043Z,41.90
2022-09-22T14:04:24.716Z,44.80
2022-09-22T14:07:11.588Z,44.40
2022-09-22T14:09:58.500Z,44.80
2022-09-22T14:12:43.975Z,43.40
2022-09-22T14:15:43.741Z,43.20
2022-09-22T14:18:30.774Z,45.10
2022-09-22T14:21:17.021Z,41.30
2022-09-22T14:24:02.491Z,41.60
2022-09-22T14:26:53.285Z,40.50
2022-09-22T14:29:39.756Z,40.00
2022-09-22T14:32:28.142Z,41.10
2022-09-22T14:35:36.106Z,37.90
2022-09-22T14:38:23.418Z,38.10
2022-09-22T14:41:26.755Z,38.80
2022-09-22T14:44:46.374Z,36.40
2022-09-22T14:47:39.034Z,38.00
2022-09-22T14:50:27.466Z,39.70
2022-09-22T14:53:41.691Z,39.60
2022-09-22T14:56:29.120Z,36.40
2022-09-22T14:59:36.364Z,41.60
2022-09-22T15:02:32.389Z,43.30
2022-09-22T15:05:30.719Z,46.60
2022-09-22T15:08:20.478Z,47.00
2022-09-22T15:11:05.670Z,49.00
2022-09-22T15:13:52.746Z,49.10
2022-09-22T15:16:41.097Z,49.10
2022-09-22T15:19:27.827Z,50.60
2022-09-22T15:22:15.001Z,51.00
2022-09-22T15:25:00.694Z,49.00
2022-09-22T15:27:46.234Z,51.70
2022-09-22T15:30:32.106Z,50.20
2022-09-22T15:33:18.805Z,51.00
2022-09-22T15:36:12.787Z,52.70
2022-09-22T15:39:21.606Z,52.60
2022-09-22T15:42:11.384Z,52.90
2022-09-22T15:44:57.072Z,52.40
2022-09-22T15:47:45.327Z,53.10
2022-09-22T15:50:30.798Z,53.00
2022-09-22T15:53:16.615Z,54.70
2022-09-22T15:56:04.984Z,52.90
2022-09-22T15:58:53.837Z,51.70
2022-09-22T16:01:39.250Z,53.50
2022-09-22T16:04:27.387Z,53.50
2022-09-22T16:07:14.953Z,52.60
2022-09-22T16:10:00.595Z,53.10
2022-09-22T16:12:47.509Z,53.20
2022-09-22T16:15:33.233Z,51.60
2022-09-22T16:18:18.893Z,52.50
2022-09-22T16:21:22.739Z,53.80
2022-09-22T16:24:10.593Z,53.00
2022-09-22T16:26:56.188Z,52.10
2022-09-22T16:29:43.342Z,53.30
2022-09-22T16:32:28.626Z,52.70
2022-09-22T16:35:14.463Z,55.60
2022-09-22T16:38:00.105Z,54.30
2022-09-22T16:40:59.832Z,55.40
2022-09-22T16:43:44.991Z,56.20
2022-09-22T16:46:32.215Z,57.70
2022-09-22T16:49:20.207Z,56.30
2022-09-22T16:52:05.800Z,57.60
2022-09-22T16:54:51.203Z,58.40
2022-09-22T16:57:36.746Z,59.70
2022-09-22T17:00:22.674Z,61.60
2022-09-22T17:03:08.657Z,60.50
2022-09-22T17:06:08.659Z,60.50
2022-09-22T17:08:56.982Z,62.00
2022-09-22T17:11:45.189Z,62.60
2022-09-22T17:14:32.205Z,62.40
2022-09-22T17:17:17.711Z,62.40
2022-09-22T17:20:04.147Z,63.60
2022-09-22T17:22:50.049Z,63.70
2022-09-22T17:25:35.243Z,64.90
2022-09-22T17:28:20.915Z,64.20
2022-09-22T17:31:07.588Z,65.40
2022-09-22T17:33:54.969Z,64.70
2022-09-22T17:36:40.854Z,66.40
2022-09-22T17:39:27.662Z,65.50
2022-09-22T17:42:15.343Z,66.80
2022-09-22T17:45:00.617Z,69.10
2022-09-22T17:48:04.464Z,69.00
2022-09-22T17:51:09.319Z,69.60
2022-09-22T17:54:25.114Z,70.80
2022-09-22T17:57:13.669Z,71.70
2022-09-22T17:59:59.680Z,72.80
2022-09-22T18:02:45.147Z,73.40
2022-09-22T18:05:32.145Z,74.20
2022-09-22T18:08:17.822Z,75.00
2022-09-22T18:11:03.845Z,76.10
2022-09-22T18:13:50.607Z,77.80
2022-09-22T18:16:38.559Z,78.30
2022-09-22T18:19:28.808Z,78.90
2022-09-22T18:22:21.104Z,80.00
2022-09-22T18:25:08.884Z,80.00
2022-09-22T18:27:56.328Z,81.10
2022-09-22T18:30:42.000Z,80.70
2022-09-22T18:33:28.027Z,82.30
2022-09-22T18:36:13.591Z,84.00
2022-09-22T18:38:59.154Z,84.60
2022-09-22T18:41:44.812Z,85.80
2022-09-22T18:44:35.046Z,86.60
2022-09-22T18:47:22.963Z,86.50
2022-09-22T18:50:09.849Z,86.60
2022-09-22T18:52:56.704Z,87.30
2022-09-22T18:55:42.443Z,87.60
2022-09-22T18:58:27.636Z,88.50
2022-09-22T19:01:13.762Z,88.90
2022-09-22T19:03:59.813Z,89.50
2022-09-22T19:07:05.414Z,90.00
2022-09-22T19:09:52.520Z,90.50
2022-09-22T19:12:39.652Z,91.40
2022-09-22T19:15:25.700Z,91.00
2022-09-22T19:18:11.769Z,91.80
2022-09-22T19:20:58.421Z,91.70
2022-09-22T19:23:43.900Z,92.30
2022-09-22T19:26:29.759Z,92.70
2022-09-22T19:29:15.144Z,93.40
2022-09-22T19:32:02.133Z,93.40
2022-09-22T19:34:51.422Z,93.20
2022-09-22T19:37:36.717Z,93.50
2022-09-22T19:40:24.566Z,93.40
2022-09-22T19:43:10.309Z,93.90
2022-09-22T19:45:55.765Z,95.50
2022-09-22T19:48:41.067Z,95.30
2022-09-22T19:51:26.991Z,95.50
2022-09-22T19:54:12.534Z,95.90
2022-09-22T19:56:59.080Z,96.40
2022-09-22T19:59:44.911Z,96.70
2022-09-22T20:02:30.363Z,98.10
2022-09-22T20:05:21.167Z,99.70
2022-09-22T20:08:15.735Z,99.50
2022-09-22T20:11:25.183Z,99.90
2022-09-22T20:14:20.238Z,99.90
2022-09-22T20:17:08.155Z,99.70
2022-09-22T20:19:54.179Z,99.70
2022-09-22T20:22:42.040Z,99.90
2022-09-22T20:25:32.859Z,99.90
2022-09-22T20:28:18.626Z,99.90
2022-09-22T20:31:03.920Z,99.90
2022-09-22T20:33:49.486Z,99.90
2022-09-22T20:36:37.268Z,99.90
2022-09-22T20:39:22.685Z,99.90
2022-09-22T20:42:08.200Z,99.90
2022-09-22T20:44:54.946Z,99.90
2022-09-22T20:47:40.420Z,99.90
2022-09-22T20:50:25.703Z,99.90
2022-09-22T20:53:12.721Z,99.90
2022-09-22T20:56:02.008Z,99.90
2022-09-22T20:58:47.454Z,99.90
2022-09-22T21:01:34.121Z,99.90
2022-09-22T21:04:19.811Z,99.90
2022-09-22T21:07:05.445Z,99.90
2022-09-22T21:10:09.702Z,99.90
2022-09-22T21:12:56.017Z,99.90
2022-09-22T21:15:41.655Z,99.90
2022-09-22T21:18:27.412Z,99.90
2022-09-22T21:21:15.257Z,99.90
2022-09-22T21:24:01.896Z,99.90
2022-09-22T21:26:47.482Z,99.90
2022-09-22T21:29:32.731Z,99.90
2022-09-22T21:32:19.917Z,99.90
2022-09-22T21:35:06.047Z,99.90
2022-09-22T21:37:56.038Z,99.90
2022-09-22T21:40:41.376Z,99.90
2022-09-22T21:43:29.020Z,99.90
2022-09-22T21:46:17.604Z,99.90
2022-09-22T21:49:04.414Z,99.90
2022-09-22T21:51:49.577Z,99.90
2022-09-22T21:54:34.829Z,99.90
2022-09-22T21:57:20.786Z,99.90
2022-09-22T22:00:07.264Z,99.90
2022-09-22T22:03:15.845Z,99.90
2022-09-22T22:06:01.438Z,99.90
2022-09-22T22:08:54.239Z,99.90
2022-09-22T22:11:53.790Z,99.90
2022-09-22T22:14:39.617Z,99.90
2022-09-22T22:17:25.570Z,99.90
2022-09-22T22:20:11.102Z,99.90
2022-09-22T22:22:57.155Z,99.90
2022-09-22T22:25:43.002Z,99.90
2022-09-22T22:28:29.794Z,99.90
2022-09-22T22:31:20.756Z,99.90
2022-09-22T22:34:08.256Z,99.90
2022-09-22T22:37:00.379Z,99.90
2022-09-22T22:39:45.883Z,99.90
2022-09-22T22:42:31.370Z,99.90
2022-09-22T22:45:16.650Z,99.90
2022-09-22T22:48:02.344Z,99.90
2022-09-22T22:50:47.851Z,99.90
2022-09-22T22:53:35.838Z,99.90
2022-09-22T22:56:24.942Z,99.90
2022-09-22T22:59:11.188Z,99.90
2022-09-22T23:01:56.632Z,99.90
2022-09-22T23:04:42.080Z,99.90
2022-09-22T23:07:27.627Z,99.90
2022-09-22T23:10:12.988Z,99.90
2022-09-22T23:13:01.066Z,99.90
2022-09-22T23:15:46.658Z,99.90
2022-09-22T23:18:35.188Z,99.90
2022-09-22T23:21:21.807Z,99.90
2022-09-22T23:24:08.286Z,99.90
2022-09-22T23:26:54.339Z,99.90
2022-09-22T23:29:39.612Z,99.90
2022-09-22T23:32:25.321Z,99.90
2022-09-22T23:35:11.267Z,99.90
2022-09-22T23:37:57.873Z,99.90
2022-09-22T23:40:43.476Z,99.90
2022-09-22T23:43:30.703Z,99.90
2022-09-22T23:46:15.850Z,99.90
2022-09-22T23:49:02.192Z,99.90
2022-09-22T23:51:47.323Z,99.90
2022-09-22T23:54:33.626Z,99.90
2022-09-22T23:57:18.965Z,99.90
